createdAt,value
2019-04-29T00:00:04.906Z,74.53
2019-04-29T00:04:08.683Z,74.34
2019-04-29T00:08:12.492Z,74.30
2019-04-29T00:12:16.200Z,74.37
2019-04-29T00:16:30.266Z,74.55
2019-04-29T00:20:35.378Z,74.48
2019-04-29T00:24:38.868Z,74.70
2019-04-29T00:28:42.645Z,74.44
2019-04-29T00:32:46.170Z,74.39
2019-04-29T00:37:00.136Z,74.39
2019-04-29T00:41:05.570Z,74.54
2019-04-29T00:45:09.587Z,74.62
2019-04-29T00:49:13.411Z,74.70
2019-04-29T00:53:17.224Z,74.76
2019-04-29T00:57:21.055Z,74.72
2019-04-29T01:01:26.023Z,74.78
2019-04-29T01:05:29.638Z,74.70
2019-04-29T01:09:33.381Z,74.31
2019-04-29T01:13:36.846Z,74.66
2019-04-29T01:17:40.660Z,74.64
2019-04-29T01:21:44.137Z,74.55
2019-04-29T01:25:49.254Z,74.73
2019-04-29T01:29:53.043Z,74.71
2019-04-29T01:33:58.152Z,75.00
2019-04-29T01:38:01.628Z,74.75
2019-04-29T01:42:07.154Z,74.53
2019-04-29T01:46:10.626Z,74.60
2019-04-29T01:50:14.097Z,75.02
2019-04-29T01:54:17.567Z,74.55
2019-04-29T01:58:21.445Z,74.32
2019-04-29T02:02:24.983Z,74.39
2019-04-29T02:06:28.875Z,74.26
2019-04-29T02:10:34.503Z,74.13
2019-04-29T02:14:37.984Z,73.83
2019-04-29T02:18:41.476Z,74.23
2019-04-29T02:22:52.592Z,74.17
2019-04-29T02:26:56.082Z,74.33
2019-04-29T02:31:01.594Z,74.63
2019-04-29T02:35:06.021Z,74.63
2019-04-29T02:39:15.588Z,74.31
2019-04-29T02:43:29.945Z,74.21
2019-04-29T02:47:33.418Z,74.53
2019-04-29T02:51:44.467Z,74.54
2019-04-29T02:55:49.589Z,74.64
2019-04-29T03:00:01.268Z,74.91
2019-04-29T03:04:06.738Z,74.72
2019-04-29T03:08:10.390Z,75.23
2019-04-29T03:12:14.030Z,74.00
2019-04-29T03:16:19.159Z,73.91
2019-04-29T03:20:33.066Z,73.69
2019-04-29T03:24:36.847Z,74.00
2019-04-29T03:28:40.297Z,74.42
2019-04-29T03:32:43.782Z,74.81
2019-04-29T03:36:47.629Z,74.57
2019-04-29T03:40:51.178Z,74.68
2019-04-29T03:44:54.671Z,74.58
2019-04-29T03:48:58.142Z,74.45
2019-04-29T03:53:01.652Z,74.47
2019-04-29T03:57:05.693Z,73.94
2019-04-29T04:01:27.650Z,73.96
2019-04-29T04:05:38.631Z,73.18
2019-04-29T04:09:42.450Z,73.61
2019-04-29T04:13:45.926Z,73.11
2019-04-29T04:17:57.008Z,72.81
2019-04-29T04:22:00.485Z,72.54
2019-04-29T04:26:04.027Z,72.38
2019-04-29T04:30:07.811Z,71.66
2019-04-29T04:34:11.615Z,71.93
2019-04-29T04:38:15.433Z,71.33
2019-04-29T04:42:18.918Z,71.32
2019-04-29T04:46:22.392Z,70.95
2019-04-29T04:50:26.166Z,71.25
2019-04-29T04:54:31.552Z,72.03
2019-04-29T04:58:34.896Z,72.07
2019-04-29T05:02:38.389Z,72.92
2019-04-29T05:06:41.942Z,73.03
2019-04-29T05:10:45.755Z,73.31
2019-04-29T05:14:49.231Z,73.69
2019-04-29T05:18:52.781Z,74.76
2019-04-29T05:22:59.886Z,74.84
2019-04-29T05:27:03.705Z,75.33
2019-04-29T05:31:07.309Z,75.28
2019-04-29T05:35:12.424Z,75.61
2019-04-29T05:39:26.503Z,75.26
2019-04-29T05:43:34.604Z,75.26
2019-04-29T05:47:40.104Z,75.64
2019-04-29T05:51:48.309Z,76.65
2019-04-29T05:55:52.610Z,76.66
2019-04-29T05:59:56.344Z,77.01
2019-04-29T06:03:59.815Z,77.01
2019-04-29T06:08:03.614Z,77.28
2019-04-29T06:12:07.103Z,77.28
2019-04-29T06:16:10.597Z,77.21
2019-04-29T06:20:17.977Z,77.28
2019-04-29T06:24:19.898Z,77.54
2019-04-29T06:28:26.362Z,77.90
2019-04-29T06:32:28.973Z,78.23
2019-04-29T06:36:32.793Z,78.48
2019-04-29T06:40:36.957Z,78.16
2019-04-29T06:44:40.536Z,78.61
2019-04-29T06:48:45.741Z,78.66
2019-04-29T06:52:49.220Z,78.99
2019-04-29T06:56:52.710Z,78.70
2019-04-29T07:01:01.149Z,78.89
2019-04-29T07:05:01.419Z,78.38
2019-04-29T07:09:07.138Z,78.64
2019-04-29T07:13:10.948Z,78.75
2019-04-29T07:17:14.535Z,78.87
2019-04-29T07:21:18.611Z,78.81
2019-04-29T07:25:24.663Z,78.61
2019-04-29T07:29:30.539Z,78.42
2019-04-29T07:33:32.575Z,78.51
2019-04-29T07:37:36.077Z,78.79
2019-04-29T07:41:39.547Z,78.93
2019-04-29T07:45:50.580Z,79.10
2019-04-29T07:49:54.131Z,78.89
2019-04-29T07:53:57.590Z,79.01
2019-04-29T07:58:01.087Z,78.66
2019-04-29T08:02:04.581Z,79.11
2019-04-29T08:06:08.238Z,78.49
2019-04-29T08:10:23.264Z,78.53
2019-04-29T08:14:19.080Z,78.76
2019-04-29T08:18:22.575Z,78.78
2019-04-29T08:22:27.828Z,78.94
2019-04-29T08:26:33.595Z,78.74
2019-04-29T08:30:36.900Z,79.02
2019-04-29T08:34:41.015Z,78.83
2019-04-29T08:38:45.266Z,79.25
2019-04-29T08:42:50.593Z,78.93
2019-04-29T08:46:59.856Z,78.97
2019-04-29T08:51:03.813Z,79.59
2019-04-29T08:55:08.674Z,79.74
2019-04-29T08:59:12.400Z,80.08
2019-04-29T09:03:18.865Z,79.62
2019-04-29T09:07:22.205Z,79.69
2019-04-29T09:11:26.671Z,79.56
2019-04-29T09:15:30.214Z,79.90
2019-04-29T09:19:33.639Z,79.67
2019-04-29T09:23:38.952Z,79.21
2019-04-29T09:27:44.944Z,79.32
2019-04-29T09:31:49.266Z,79.29
2019-04-29T09:35:52.747Z,79.61
2019-04-29T09:39:56.417Z,78.99
2019-04-29T09:44:03.876Z,79.41
2019-04-29T09:48:07.851Z,79.15
2019-04-29T09:52:12.462Z,79.37
2019-04-29T09:56:16.351Z,79.98
2019-04-29T10:00:22.315Z,80.37
2019-04-29T10:04:55.971Z,80.72
2019-04-29T10:08:49.514Z,80.74
2019-04-29T10:12:54.117Z,80.91
2019-04-29T10:17:16.726Z,80.66
2019-04-29T10:21:21.354Z,80.83
2019-04-29T10:25:25.971Z,80.93
2019-04-29T10:29:31.087Z,81.11
2019-04-29T10:33:34.568Z,80.91
2019-04-29T10:37:38.376Z,81.06
2019-04-29T10:41:43.586Z,80.89
2019-04-29T10:46:07.075Z,80.47
2019-04-29T10:50:17.026Z,79.59
2019-04-29T10:54:20.702Z,79.32
2019-04-29T10:58:29.836Z,78.32
2019-04-29T11:02:32.537Z,77.19
2019-04-29T11:06:37.071Z,77.22
2019-04-29T11:10:41.085Z,76.85
2019-04-29T11:14:44.583Z,77.37
2019-04-29T11:18:48.121Z,76.38
2019-04-29T11:22:53.349Z,75.77
2019-04-29T11:27:14.862Z,76.08
2019-04-29T11:31:19.287Z,75.32
2019-04-29T11:35:28.432Z,75.88
2019-04-29T11:39:35.537Z,76.22
2019-04-29T11:43:39.267Z,75.08
2019-04-29T11:47:44.078Z,73.83
2019-04-29T11:52:08.548Z,73.51
2019-04-29T11:55:56.984Z,71.66
2019-04-29T12:00:03.324Z,72.12
2019-04-29T12:04:15.085Z,69.86
2019-04-29T12:08:18.632Z,68.47
2019-04-29T12:12:22.825Z,65.80
2019-04-29T12:16:27.968Z,66.33
2019-04-29T12:20:39.249Z,67.95
2019-04-29T12:24:43.074Z,67.01
2019-04-29T12:28:46.632Z,66.90
2019-04-29T12:32:51.822Z,66.98
2019-04-29T12:36:56.812Z,67.37
2019-04-29T12:41:20.508Z,67.37
2019-04-29T12:45:20.891Z,67.41
2019-04-29T12:49:24.360Z,67.21
2019-04-29T12:53:27.883Z,65.08
2019-04-29T12:57:31.373Z,65.60
2019-04-29T13:01:51.322Z,65.73
2019-04-29T13:05:58.377Z,67.33
2019-04-29T13:10:18.844Z,65.52
2019-04-29T13:14:23.969Z,64.03
2019-04-29T13:18:48.971Z,65.70
2019-04-29T13:22:53.593Z,63.78
2019-04-29T13:26:57.092Z,65.38
2019-04-29T13:31:00.586Z,64.00
2019-04-29T13:35:10.904Z,63.66
2019-04-29T13:39:37.880Z,62.89
2019-04-29T13:43:25.918Z,63.09
2019-04-29T13:47:33.407Z,61.62
2019-04-29T13:51:41.610Z,61.11
2019-04-29T13:55:49.184Z,62.40
2019-04-29T14:00:01.702Z,61.71
2019-04-29T14:04:07.457Z,60.14
2019-04-29T14:08:10.943Z,59.60
2019-04-29T14:12:47.255Z,54.18
2019-04-29T14:16:19.651Z,51.56
2019-04-29T14:20:23.131Z,50.75
2019-04-29T14:24:26.616Z,45.72
2019-04-29T14:28:30.475Z,45.91
2019-04-29T14:32:38.074Z,44.87
2019-04-29T14:36:39.823Z,44.87
2019-04-29T14:40:43.977Z,44.04
2019-04-29T14:45:07.711Z,45.64
2019-04-29T14:49:12.870Z,45.19
2019-04-29T14:53:19.539Z,45.07
2019-04-29T14:57:22.303Z,45.59
2019-04-29T15:01:36.561Z,38.47
2019-04-29T15:05:40.192Z,39.25
2019-04-29T15:09:57.564Z,40.77
2019-04-29T15:14:02.923Z,40.17
2019-04-29T15:18:16.508Z,40.39
2019-04-29T15:22:20.802Z,39.67
2019-04-29T15:26:24.282Z,41.10
2019-04-29T15:30:31.804Z,41.10
2019-04-29T15:34:33.395Z,42.16
2019-04-29T15:38:36.955Z,41.26
2019-04-29T15:42:43.160Z,39.17
2019-04-29T15:46:46.871Z,41.61
2019-04-29T15:50:50.722Z,40.50
2019-04-29T15:54:54.571Z,41.49
2019-04-29T15:58:59.607Z,41.67
2019-04-29T16:03:03.285Z,42.03
2019-04-29T16:07:23.571Z,39.96
2019-04-29T16:11:45.128Z,41.91
2019-04-29T16:15:48.996Z,42.52
2019-04-29T16:19:52.490Z,41.03
2019-04-29T16:23:57.764Z,43.62
2019-04-29T16:28:01.483Z,42.56
2019-04-29T16:32:06.658Z,42.95
2019-04-29T16:36:10.129Z,43.74
2019-04-29T16:40:14.325Z,43.35
2019-04-29T16:44:34.676Z,43.90
2019-04-29T16:48:25.041Z,42.71
2019-04-29T16:52:28.526Z,43.59
2019-04-29T16:56:32.034Z,43.83
2019-04-29T17:00:37.227Z,42.99
2019-04-29T17:04:41.169Z,44.40
2019-04-29T17:08:50.610Z,45.18
2019-04-29T17:12:51.902Z,46.60
2019-04-29T17:16:55.393Z,46.61
2019-04-29T17:21:04.717Z,46.36
2019-04-29T17:25:08.055Z,46.54
2019-04-29T17:29:39.017Z,46.31
2019-04-29T17:33:54.939Z,45.46
2019-04-29T17:38:01.068Z,47.44
2019-04-29T17:42:04.320Z,48.27
2019-04-29T17:46:14.228Z,47.14
2019-04-29T17:50:29.925Z,46.88
2019-04-29T17:54:30.355Z,47.45
2019-04-29T17:58:35.887Z,46.75
2019-04-29T18:02:47.440Z,47.56
2019-04-29T18:06:58.693Z,48.20
2019-04-29T18:11:06.459Z,49.93
2019-04-29T18:15:10.794Z,48.72
2019-04-29T18:19:18.649Z,46.45
2019-04-29T18:23:24.048Z,46.45
2019-04-29T18:27:29.182Z,47.64
2019-04-29T18:31:32.943Z,48.70
2019-04-29T18:35:36.441Z,49.87
2019-04-29T18:39:40.104Z,51.80
2019-04-29T18:43:45.214Z,53.12
2019-04-29T18:47:49.013Z,54.10
2019-04-29T18:51:52.526Z,53.14
2019-04-29T18:55:56.007Z,51.25
2019-04-29T19:00:06.756Z,51.57
2019-04-29T19:04:16.145Z,51.25
2019-04-29T19:08:22.999Z,51.08
2019-04-29T19:12:21.903Z,52.71
2019-04-29T19:16:27.330Z,54.74
2019-04-29T19:20:30.612Z,55.29
2019-04-29T19:24:36.283Z,56.68
2019-04-29T19:28:39.316Z,56.41
2019-04-29T19:32:45.006Z,57.45
2019-04-29T19:36:50.647Z,58.02
2019-04-29T19:40:53.528Z,56.96
2019-04-29T19:44:57.321Z,58.16
2019-04-29T19:49:07.421Z,58.90
2019-04-29T19:53:06.377Z,58.90
2019-04-29T19:57:11.374Z,59.26
2019-04-29T20:01:26.568Z,58.69
2019-04-29T20:05:23.648Z,59.34
2019-04-29T20:09:28.768Z,59.56
2019-04-29T20:13:34.705Z,60.55
2019-04-29T20:17:58.125Z,61.47
2019-04-29T20:22:07.477Z,61.06
2019-04-29T20:26:15.381Z,61.91
2019-04-29T20:30:19.328Z,61.21
2019-04-29T20:34:23.777Z,61.12
2019-04-29T20:38:25.359Z,62.85
2019-04-29T20:42:29.373Z,64.23
2019-04-29T20:46:44.030Z,65.51
2019-04-29T20:50:40.959Z,65.62
2019-04-29T20:54:45.226Z,66.63
2019-04-29T20:58:49.982Z,65.73
2019-04-29T21:02:53.673Z,66.15
2019-04-29T21:07:00.502Z,65.96
2019-04-29T21:11:05.741Z,66.17
2019-04-29T21:15:24.937Z,66.18
2019-04-29T21:19:29.119Z,66.13
2019-04-29T21:23:35.445Z,65.80
2019-04-29T21:27:38.104Z,67.22
2019-04-29T21:31:41.654Z,67.44
2019-04-29T21:35:49.550Z,68.11
2019-04-29T21:39:55.090Z,67.90
2019-04-29T21:43:59.933Z,68.41
2019-04-29T21:48:03.565Z,68.51
2019-04-29T21:52:07.487Z,69.24
2019-04-29T21:56:11.307Z,69.71
2019-04-29T22:00:19.675Z,70.23
2019-04-29T22:04:20.542Z,71.10
2019-04-29T22:08:27.611Z,70.62
2019-04-29T22:12:29.424Z,71.10
2019-04-29T22:16:35.551Z,71.13
2019-04-29T22:20:42.181Z,70.96
2019-04-29T22:24:45.502Z,71.28
2019-04-29T22:28:53.276Z,71.28
2019-04-29T22:32:56.125Z,71.09
2019-04-29T22:37:01.088Z,71.01
2019-04-29T22:41:06.711Z,70.98
2019-04-29T22:45:13.545Z,71.18
2019-04-29T22:49:24.453Z,71.53
2019-04-29T22:53:24.925Z,71.53
2019-04-29T22:57:31.644Z,71.70
2019-04-29T23:01:36.306Z,72.60
2019-04-29T23:05:39.559Z,72.16
2019-04-29T23:09:46.243Z,72.05
2019-04-29T23:13:49.080Z,71.88
2019-04-29T23:17:52.904Z,71.80
2019-04-29T23:22:03.462Z,71.88
2019-04-29T23:26:07.014Z,71.97
2019-04-29T23:30:13.576Z,71.98
2019-04-29T23:34:17.743Z,72.05
2019-04-29T23:38:21.590Z,72.51
2019-04-29T23:42:26.064Z,72.12
2019-04-29T23:46:29.853Z,72.16
2019-04-29T23:50:35.915Z,72.31
2019-04-29T23:54:45.564Z,72.36
2019-04-29T23:58:47.104Z,72.36
